createdAt,value
2018-06-19T00:00:44.212Z,74.60
2018-06-19T00:03:11.755Z,75.00
2018-06-19T00:05:39.273Z,75.30
2018-06-19T00:08:06.786Z,75.50
2018-06-19T00:10:34.311Z,75.60
2018-06-19T00:13:01.867Z,76.00
2018-06-19T00:15:29.375Z,76.50
2018-06-19T00:18:05.028Z,76.80
2018-06-19T00:20:32.543Z,76.90
2018-06-19T00:23:00.055Z,77.10
2018-06-19T00:25:27.563Z,77.50
2018-06-19T00:27:55.067Z,77.80
2018-06-19T00:30:22.604Z,78.10
2018-06-19T00:32:50.125Z,78.40
2018-06-19T00:35:17.635Z,78.60
2018-06-19T00:37:45.367Z,78.80
2018-06-19T00:40:12.873Z,79.00
2018-06-19T00:42:40.374Z,79.30
2018-06-19T00:45:07.916Z,78.90
2018-06-19T00:47:35.422Z,79.00
2018-06-19T00:50:02.940Z,79.00
2018-06-19T00:52:30.436Z,79.10
2018-06-19T00:54:57.962Z,79.40
2018-06-19T00:57:25.461Z,79.50
2018-06-19T00:59:52.970Z,79.40
2018-06-19T01:02:20.460Z,79.60
2018-06-19T01:04:47.964Z,79.50
2018-06-19T01:07:15.471Z,79.80
2018-06-19T01:09:42.999Z,80.10
2018-06-19T01:12:10.508Z,80.50
2018-06-19T01:14:38.027Z,80.90
2018-06-19T01:17:05.529Z,81.00
2018-06-19T01:19:33.035Z,81.20
2018-06-19T01:22:00.565Z,81.30
2018-06-19T01:24:28.068Z,81.60
2018-06-19T01:26:55.588Z,82.50
2018-06-19T01:29:23.108Z,82.10
2018-06-19T01:31:50.621Z,82.40
2018-06-19T01:34:18.115Z,82.50
2018-06-19T01:36:45.621Z,83.40
2018-06-19T01:39:13.114Z,82.90
2018-06-19T01:41:40.638Z,82.80
2018-06-19T01:44:08.248Z,82.90
2018-06-19T01:46:35.773Z,83.20
2018-06-19T01:49:03.279Z,83.40
2018-06-19T01:51:30.789Z,83.70
2018-06-19T01:53:58.275Z,83.80
2018-06-19T01:56:25.771Z,83.90
2018-06-19T01:58:53.672Z,84.20
2018-06-19T02:01:21.213Z,84.50
2018-06-19T02:03:48.722Z,84.50
2018-06-19T02:06:16.250Z,84.60
2018-06-19T02:08:43.758Z,84.70
2018-06-19T02:11:11.277Z,84.80
2018-06-19T02:13:39.176Z,85.00
2018-06-19T02:16:06.679Z,85.20
2018-06-19T02:18:34.223Z,85.00
2018-06-19T02:21:01.744Z,85.10
2018-06-19T02:23:29.261Z,85.10
2018-06-19T02:25:56.767Z,85.40
2018-06-19T02:28:24.266Z,85.70
2018-06-19T02:30:51.800Z,86.10
2018-06-19T02:33:19.415Z,86.40
2018-06-19T02:35:47.021Z,86.70
2018-06-19T02:38:14.563Z,85.70
2018-06-19T02:40:42.339Z,85.50
2018-06-19T02:43:09.844Z,85.70
2018-06-19T02:45:37.353Z,85.80
2018-06-19T02:48:04.877Z,86.00
2018-06-19T02:50:32.380Z,86.20
2018-06-19T02:52:59.901Z,86.00
2018-06-19T02:55:27.411Z,87.00
2018-06-19T02:57:54.931Z,86.50
2018-06-19T03:00:22.489Z,86.80
2018-06-19T03:02:49.948Z,86.90
2018-06-19T03:05:17.999Z,87.00
2018-06-19T03:07:45.524Z,87.10
2018-06-19T03:10:13.056Z,87.10
2018-06-19T03:12:40.564Z,86.80
2018-06-19T03:15:08.068Z,86.90
2018-06-19T03:17:35.571Z,87.10
2018-06-19T03:20:03.088Z,86.90
2018-06-19T03:22:30.607Z,86.90
2018-06-19T03:24:58.122Z,86.80
2018-06-19T03:27:25.733Z,86.40
2018-06-19T03:29:53.240Z,85.80
2018-06-19T03:32:20.758Z,85.40
2018-06-19T03:34:48.265Z,85.20
2018-06-19T03:37:15.784Z,85.00
2018-06-19T03:39:43.286Z,84.90
2018-06-19T03:42:10.786Z,84.80
2018-06-19T03:44:38.298Z,84.50
2018-06-19T03:47:05.803Z,84.30
2018-06-19T03:49:33.306Z,84.60
2018-06-19T03:52:00.805Z,84.20
2018-06-19T03:54:28.335Z,84.20
2018-06-19T03:56:55.848Z,84.20
2018-06-19T03:59:23.359Z,84.30
2018-06-19T04:01:50.869Z,84.20
2018-06-19T04:04:18.392Z,84.10
2018-06-19T04:06:45.892Z,83.70
2018-06-19T04:09:13.421Z,83.30
2018-06-19T04:11:40.937Z,82.60
2018-06-19T04:14:08.472Z,82.30
2018-06-19T04:16:35.978Z,82.10
2018-06-19T04:19:03.523Z,82.10
2018-06-19T04:21:31.039Z,82.10
2018-06-19T04:23:58.573Z,82.00
2018-06-19T04:26:26.086Z,82.10
2018-06-19T04:28:53.599Z,82.20
2018-06-19T04:31:21.107Z,82.20
2018-06-19T04:33:48.639Z,82.20
2018-06-19T04:36:16.135Z,81.90
2018-06-19T04:38:43.656Z,81.40
2018-06-19T04:41:11.171Z,80.40
2018-06-19T04:43:38.696Z,78.80
2018-06-19T04:46:06.225Z,75.60
2018-06-19T04:48:33.741Z,72.60
2018-06-19T04:51:01.288Z,70.70
2018-06-19T04:53:29.049Z,66.30
2018-06-19T04:55:56.591Z,58.70
2018-06-19T04:58:24.115Z,54.80
2018-06-19T05:00:51.648Z,54.40
2018-06-19T05:03:19.175Z,55.80
2018-06-19T05:05:46.704Z,57.10
2018-06-19T05:08:14.221Z,58.50
2018-06-19T05:10:41.985Z,59.70
2018-06-19T05:13:09.512Z,60.00
2018-06-19T05:15:37.027Z,60.80
2018-06-19T05:18:04.625Z,61.80
2018-06-19T05:20:32.147Z,62.20
2018-06-19T05:22:59.672Z,62.50
2018-06-19T05:25:27.203Z,62.50
2018-06-19T05:27:54.711Z,62.60
2018-06-19T05:30:22.493Z,62.10
2018-06-19T05:32:53.804Z,61.90
2018-06-19T05:35:21.341Z,61.50
2018-06-19T05:37:48.851Z,61.60
2018-06-19T05:40:16.387Z,61.40
2018-06-19T05:45:11.547Z,61.20
2018-06-19T05:47:39.067Z,61.00
2018-06-19T05:50:06.635Z,60.70
2018-06-19T05:52:34.403Z,60.30
2018-06-19T05:55:01.960Z,59.80
2018-06-19T05:57:29.536Z,59.90
2018-06-19T05:59:57.071Z,59.30
2018-06-19T06:02:24.624Z,59.20
2018-06-19T06:04:52.163Z,58.90
2018-06-19T06:07:20.053Z,58.80
2018-06-19T06:09:47.925Z,58.40
2018-06-19T06:12:15.444Z,57.80
2018-06-19T06:14:42.997Z,57.50
2018-06-19T06:17:10.529Z,57.50
2018-06-19T06:19:38.084Z,57.50
2018-06-19T06:22:05.648Z,56.90
2018-06-19T06:24:33.140Z,56.80
2018-06-19T06:27:00.655Z,56.70
2018-06-19T06:29:28.163Z,56.60
2018-06-19T06:31:55.673Z,56.30
2018-06-19T06:34:23.226Z,56.20
2018-06-19T06:36:50.775Z,56.20
2018-06-19T06:39:18.311Z,56.30
2018-06-19T06:41:45.831Z,56.30
2018-06-19T06:44:13.351Z,56.10
2018-06-19T06:46:51.578Z,55.60
2018-06-19T06:49:19.135Z,55.00
2018-06-19T06:51:46.651Z,54.80
2018-06-19T06:54:14.359Z,54.80
2018-06-19T06:56:41.963Z,54.40
2018-06-19T06:59:09.488Z,54.10
2018-06-19T07:01:37.009Z,54.00
2018-06-19T07:04:04.568Z,53.70
2018-06-19T07:06:32.343Z,52.40
2018-06-19T07:08:59.859Z,51.60
2018-06-19T07:11:27.359Z,51.40
2018-06-19T07:13:54.893Z,50.80
2018-06-19T07:16:22.372Z,49.70
2018-06-19T07:18:49.889Z,48.30
2018-06-19T07:21:17.367Z,46.90
2018-06-19T07:23:44.858Z,46.10
2018-06-19T07:26:12.424Z,45.30
2018-06-19T07:28:39.915Z,45.10
2018-06-19T07:31:07.426Z,45.10
2018-06-19T07:33:34.973Z,44.60
2018-06-19T07:36:02.473Z,43.80
2018-06-19T07:38:29.975Z,44.10
2018-06-19T07:40:57.490Z,44.60
2018-06-19T07:43:24.999Z,45.80
2018-06-19T07:45:52.509Z,46.50
2018-06-19T07:48:20.029Z,47.30
2018-06-19T07:50:47.539Z,48.50
2018-06-19T07:53:15.057Z,49.30
2018-06-19T07:55:42.565Z,50.40
2018-06-19T07:58:10.086Z,51.20
2018-06-19T08:00:37.603Z,52.00
2018-06-19T08:03:05.172Z,52.80
2018-06-19T08:05:32.674Z,53.20
2018-06-19T08:08:00.210Z,53.50
2018-06-19T08:10:27.731Z,53.60
2018-06-19T08:12:55.256Z,53.40
2018-06-19T08:15:22.796Z,52.90
2018-06-19T08:17:50.324Z,53.00
2018-06-19T08:20:17.872Z,51.60
2018-06-19T08:22:45.414Z,50.70
2018-06-19T08:25:12.920Z,49.80
2018-06-19T08:27:40.443Z,49.10
2018-06-19T08:30:07.963Z,47.90
2018-06-19T08:35:03.179Z,45.80
2018-06-19T08:37:30.724Z,45.60
2018-06-19T08:39:58.245Z,45.70
2018-06-19T08:42:25.767Z,44.10
2018-06-19T08:44:53.304Z,43.70
2018-06-19T08:47:20.820Z,43.30
2018-06-19T08:49:48.364Z,43.60
2018-06-19T08:52:16.112Z,43.30
2018-06-19T08:54:43.650Z,42.70
2018-06-19T08:57:11.169Z,42.40
2018-06-19T08:59:38.707Z,42.10
2018-06-19T09:02:06.244Z,41.90
2018-06-19T09:07:17.203Z,40.90
2018-06-19T09:09:44.791Z,40.20
2018-06-19T09:12:31.577Z,39.70
2018-06-19T09:18:00.947Z,38.80
2018-06-19T09:20:28.555Z,38.50
2018-06-19T09:22:56.036Z,38.50
2018-06-19T09:25:23.552Z,39.00
2018-06-19T09:27:51.054Z,39.40
2018-06-19T09:30:18.575Z,39.50
2018-06-19T09:32:46.099Z,40.00
2018-06-19T09:35:13.624Z,40.40
2018-06-19T09:37:41.163Z,40.60
2018-06-19T09:40:08.704Z,40.70
2018-06-19T09:42:36.623Z,40.90
2018-06-19T09:45:04.196Z,41.10
2018-06-19T09:47:48.419Z,41.20
2018-06-19T09:50:15.964Z,41.40
2018-06-19T09:52:43.510Z,42.40
2018-06-19T09:55:11.066Z,43.30
2018-06-19T09:57:38.791Z,44.00
2018-06-19T10:00:06.357Z,44.20
2018-06-19T10:02:37.723Z,44.10
2018-06-19T10:05:22.957Z,43.60
2018-06-19T10:07:50.526Z,42.30
2018-06-19T10:10:18.052Z,41.60
2018-06-19T10:12:45.584Z,41.30
2018-06-19T10:15:13.099Z,40.70
2018-06-19T10:17:40.653Z,41.10
2018-06-19T10:20:08.186Z,41.00
2018-06-19T10:22:35.716Z,40.90
2018-06-19T10:25:03.264Z,41.10
2018-06-19T10:27:30.820Z,41.60
2018-06-19T10:29:58.339Z,42.20
2018-06-19T10:32:25.880Z,42.40
2018-06-19T10:34:53.419Z,42.80
2018-06-19T10:38:24.222Z,42.70
2018-06-19T10:40:51.777Z,42.50
2018-06-19T10:43:19.343Z,42.20
2018-06-19T10:45:46.878Z,40.60
2018-06-19T10:48:14.414Z,39.40
2018-06-19T10:50:41.935Z,38.60
2018-06-19T10:55:37.105Z,38.90
2018-06-19T10:58:04.653Z,39.10
2018-06-19T11:00:32.183Z,39.00
2018-06-19T11:02:59.719Z,39.10
2018-06-19T11:05:27.243Z,39.40
2018-06-19T11:07:54.808Z,39.80
2018-06-19T11:10:22.352Z,39.50
2018-06-19T11:12:49.877Z,39.10
2018-06-19T11:15:42.471Z,39.30
2018-06-19T11:18:10.009Z,39.00
2018-06-19T11:20:41.120Z,38.80
2018-06-19T11:25:36.310Z,39.80
2018-06-19T11:28:03.856Z,40.00
2018-06-19T11:30:31.388Z,40.20
2018-06-19T11:32:58.955Z,40.40
2018-06-19T11:35:26.463Z,40.20
2018-06-19T11:37:53.997Z,40.00
2018-06-19T11:40:45.036Z,40.20
2018-06-19T11:43:12.599Z,40.10
2018-06-19T11:48:07.740Z,40.10
2018-06-19T11:50:35.275Z,39.50
2018-06-19T11:56:29.228Z,37.60
2018-06-19T11:58:56.764Z,36.80
2018-06-19T12:01:29.976Z,37.80
2018-06-19T12:03:57.507Z,37.50
2018-06-19T12:06:25.019Z,38.40
2018-06-19T12:08:52.591Z,39.30
2018-06-19T12:11:20.131Z,39.90
2018-06-19T12:16:57.371Z,40.50
2018-06-19T12:19:25.061Z,41.00
2018-06-19T12:21:52.634Z,41.60
2018-06-19T12:24:20.171Z,40.80
2018-06-19T12:26:47.707Z,39.70
2018-06-19T12:29:15.239Z,38.70
2018-06-19T12:31:42.804Z,38.10
2018-06-19T12:34:10.328Z,37.60
2018-06-19T12:36:37.847Z,37.30
2018-06-19T12:39:08.592Z,36.90
2018-06-19T12:41:40.467Z,35.10
2018-06-19T12:44:08.322Z,34.10
2018-06-19T12:46:36.181Z,34.60
2018-06-19T12:49:03.752Z,34.60
2018-06-19T12:52:48.495Z,34.40
2018-06-19T12:56:19.649Z,35.20
2018-06-19T12:58:47.203Z,36.40
2018-06-19T13:01:14.729Z,37.50
2018-06-19T13:03:59.721Z,37.70
2018-06-19T13:06:32.769Z,36.70
2018-06-19T13:09:00.338Z,34.60
2018-06-19T13:11:27.881Z,32.90
2018-06-19T13:14:12.928Z,32.60
2018-06-19T13:16:58.040Z,32.40
2018-06-19T13:19:43.192Z,32.80
2018-06-19T13:22:10.720Z,32.30
2018-06-19T13:24:38.276Z,33.30
2018-06-19T13:27:05.845Z,34.00
2018-06-19T13:35:37.819Z,34.90
2018-06-19T13:38:05.411Z,35.30
2018-06-19T13:41:18.886Z,35.10
2018-06-19T13:44:05.574Z,34.00
2018-06-19T13:46:33.131Z,33.70
2018-06-19T13:49:00.681Z,33.60
2018-06-19T13:51:28.228Z,33.00
2018-06-19T13:53:55.771Z,32.20
2018-06-19T13:57:40.386Z,31.70
2018-06-19T14:00:20.085Z,31.30
2018-06-19T14:02:47.644Z,31.20
2018-06-19T14:05:16.359Z,31.20
2018-06-19T14:08:00.596Z,32.00
2018-06-19T14:13:07.149Z,33.10
2018-06-19T14:15:50.815Z,33.50
2018-06-19T14:18:19.663Z,33.80
2018-06-19T14:20:47.188Z,34.40
2018-06-19T14:23:14.742Z,34.30
2018-06-19T14:25:42.268Z,34.20
2018-06-19T14:28:09.790Z,34.20
2018-06-19T14:30:37.315Z,34.40
2018-06-19T14:33:05.016Z,34.10
2018-06-19T14:35:32.471Z,33.60
2018-06-19T14:37:59.987Z,33.40
2018-06-19T14:40:27.524Z,33.90
2018-06-19T14:42:55.023Z,34.60
2018-06-19T14:45:22.734Z,34.50
2018-06-19T14:47:50.507Z,34.90
2018-06-19T14:50:18.292Z,35.30
2018-06-19T14:52:46.036Z,35.50
2018-06-19T14:55:13.818Z,36.20
2018-06-19T14:57:41.532Z,36.60
2018-06-19T15:00:10.212Z,37.00
2018-06-19T15:05:06.612Z,37.50
2018-06-19T15:07:40.125Z,37.70
2018-06-19T15:10:08.776Z,38.10
2018-06-19T15:12:36.718Z,37.50
2018-06-19T15:15:04.468Z,37.80
2018-06-19T15:17:32.314Z,38.00
2018-06-19T15:20:00.090Z,37.90
2018-06-19T15:22:27.928Z,37.60
2018-06-19T15:24:55.737Z,37.60
2018-06-19T15:27:42.898Z,37.90
2018-06-19T15:30:10.911Z,37.90
2018-06-19T15:32:38.665Z,37.90
2018-06-19T15:35:06.444Z,37.90
2018-06-19T15:37:34.225Z,37.80
2018-06-19T15:40:02.077Z,37.90
2018-06-19T15:42:29.823Z,38.00
2018-06-19T15:48:06.077Z,38.20
2018-06-19T15:50:33.829Z,38.50
2018-06-19T15:53:01.573Z,38.80
2018-06-19T15:55:29.235Z,38.90
2018-06-19T15:57:57.013Z,39.30
2018-06-19T16:00:24.736Z,39.50
2018-06-19T16:02:52.506Z,39.80
2018-06-19T16:05:20.279Z,39.80
2018-06-19T16:07:53.675Z,39.80
2018-06-19T16:10:21.427Z,40.10
2018-06-19T16:12:49.268Z,40.90
2018-06-19T16:15:20.034Z,40.90
2018-06-19T16:17:47.760Z,41.20
2018-06-19T16:20:15.489Z,41.60
2018-06-19T16:22:43.257Z,41.90
2018-06-19T16:25:10.969Z,42.80
2018-06-19T16:27:38.738Z,42.60
2018-06-19T16:30:06.485Z,43.00
2018-06-19T16:32:34.184Z,43.20
2018-06-19T16:35:01.960Z,43.40
2018-06-19T16:37:29.693Z,43.60
2018-06-19T16:39:57.520Z,43.90
2018-06-19T16:42:25.244Z,44.00
2018-06-19T16:44:52.954Z,44.10
2018-06-19T16:47:20.629Z,44.40
2018-06-19T16:49:48.312Z,44.50
2018-06-19T16:52:16.068Z,44.80
2018-06-19T16:54:43.756Z,44.90
2018-06-19T16:57:11.521Z,45.00
2018-06-19T16:59:39.295Z,45.10
2018-06-19T17:02:06.992Z,45.20
2018-06-19T17:04:34.662Z,45.40
2018-06-19T17:07:02.522Z,45.50
2018-06-19T17:09:30.216Z,45.70
2018-06-19T17:11:57.931Z,45.80
2018-06-19T17:14:25.632Z,46.00
2018-06-19T17:16:53.442Z,46.30
2018-06-19T17:19:21.137Z,46.50
2018-06-19T17:21:48.884Z,47.00
2018-06-19T17:24:16.621Z,47.40
2018-06-19T17:26:44.340Z,47.60
2018-06-19T17:29:12.081Z,47.70
2018-06-19T17:31:39.857Z,47.90
2018-06-19T17:34:07.612Z,48.00
2018-06-19T17:36:35.353Z,48.20
2018-06-19T17:39:05.631Z,48.30
2018-06-19T17:41:33.363Z,48.40
2018-06-19T17:44:01.114Z,48.50
2018-06-19T17:46:28.872Z,48.70
2018-06-19T17:48:56.585Z,48.80
2018-06-19T17:51:24.309Z,48.80
2018-06-19T17:53:52.028Z,48.90
2018-06-19T17:56:20.719Z,49.40
2018-06-19T17:58:48.400Z,49.10
2018-06-19T18:01:16.096Z,49.30
2018-06-19T18:03:43.800Z,49.50
2018-06-19T18:06:11.558Z,49.50
2018-06-19T18:08:39.341Z,49.70
2018-06-19T18:11:07.096Z,49.90
2018-06-19T18:13:34.841Z,50.10
2018-06-19T18:16:02.569Z,50.30
2018-06-19T18:18:30.566Z,50.40
2018-06-19T18:20:58.313Z,50.50
2018-06-19T18:23:26.093Z,50.60
2018-06-19T18:25:53.835Z,50.70
2018-06-19T18:28:21.673Z,50.90
2018-06-19T18:30:49.515Z,51.40
2018-06-19T18:33:17.327Z,51.30
2018-06-19T18:35:45.065Z,51.60
2018-06-19T18:38:12.926Z,52.00
2018-06-19T18:40:40.764Z,52.00
2018-06-19T18:43:08.787Z,52.30
2018-06-19T18:45:36.836Z,52.60
2018-06-19T18:48:04.824Z,52.70
2018-06-19T18:50:32.596Z,53.10
2018-06-19T18:53:00.280Z,53.30
2018-06-19T18:55:28.052Z,53.50
2018-06-19T18:57:55.940Z,53.70
2018-06-19T19:00:23.685Z,54.30
2018-06-19T19:02:51.606Z,54.70
2018-06-19T19:05:19.349Z,54.90
2018-06-19T19:07:47.148Z,55.40
2018-06-19T19:10:20.643Z,55.60
2018-06-19T19:12:48.381Z,56.00
2018-06-19T19:15:21.792Z,56.30
2018-06-19T19:17:55.143Z,56.70
2018-06-19T19:20:22.920Z,57.00
2018-06-19T19:22:50.665Z,57.60
2018-06-19T19:25:18.444Z,58.30
2018-06-19T19:27:51.980Z,58.90
2018-06-19T19:30:19.740Z,59.30
2018-06-19T19:32:47.490Z,60.00
2018-06-19T19:35:15.372Z,61.10
2018-06-19T19:37:48.790Z,62.00
2018-06-19T19:40:16.574Z,62.90
2018-06-19T19:42:44.412Z,63.70
2018-06-19T19:45:12.241Z,64.60
2018-06-19T19:47:45.735Z,65.30
2018-06-19T19:50:13.468Z,66.20
2018-06-19T19:52:41.244Z,66.90
2018-06-19T19:55:09.004Z,67.90
2018-06-19T19:57:42.520Z,68.20
2018-06-19T20:02:42.658Z,69.00
2018-06-19T20:05:10.564Z,69.60
2018-06-19T20:10:50.764Z,71.00
2018-06-19T20:13:18.931Z,72.00
2018-06-19T20:15:47.441Z,72.20
2018-06-19T20:20:43.013Z,73.30
2018-06-19T20:23:10.741Z,73.70
2018-06-19T20:25:38.511Z,74.20
2018-06-19T20:28:06.577Z,74.70
2018-06-19T20:30:34.368Z,75.00
2018-06-19T20:33:02.125Z,76.30
2018-06-19T20:35:29.897Z,75.90
2018-06-19T20:37:57.716Z,76.50
2018-06-19T20:40:25.460Z,76.70
2018-06-19T20:42:53.217Z,77.00
2018-06-19T20:45:20.941Z,77.50
2018-06-19T20:47:48.801Z,77.80
2018-06-19T20:52:44.232Z,78.40
2018-06-19T20:55:12.010Z,78.50
2018-06-19T20:57:39.759Z,79.00
2018-06-19T21:00:07.545Z,79.10
2018-06-19T21:02:35.309Z,79.50
2018-06-19T21:05:15.092Z,79.90
2018-06-19T21:07:43.001Z,80.10
2018-06-19T21:10:10.726Z,80.20
2018-06-19T21:12:56.756Z,80.50
2018-06-19T21:15:24.541Z,80.60
2018-06-19T21:17:52.300Z,80.20
2018-06-19T21:20:20.025Z,80.40
2018-06-19T21:22:47.812Z,80.60
2018-06-19T21:25:15.590Z,80.60
2018-06-19T21:28:06.436Z,80.30
2018-06-19T21:30:34.186Z,81.20
2018-06-19T21:33:01.982Z,81.70
2018-06-19T21:35:29.802Z,82.10
2018-06-19T21:37:57.534Z,82.70
2018-06-19T21:40:43.874Z,83.50
2018-06-19T21:43:23.046Z,84.20
2018-06-19T21:45:50.847Z,84.60
2018-06-19T21:48:18.641Z,85.10
2018-06-19T21:57:17.241Z,85.80
2018-06-19T21:59:44.980Z,86.20
2018-06-19T22:02:17.350Z,86.70
2018-06-19T22:04:45.069Z,87.10
2018-06-19T22:07:12.824Z,87.30
2018-06-19T22:09:40.612Z,87.00
2018-06-19T22:12:08.347Z,87.00
2018-06-19T22:14:36.117Z,87.00
2018-06-19T22:17:03.867Z,87.10
2018-06-19T22:19:31.627Z,87.30
2018-06-19T22:21:59.411Z,88.10
2018-06-19T22:24:27.162Z,88.00
2018-06-19T22:26:54.928Z,87.70
2018-06-19T22:29:22.647Z,87.60
2018-06-19T22:31:50.460Z,87.50
2018-06-19T22:34:18.212Z,88.20
2018-06-19T22:36:45.901Z,87.20
2018-06-19T22:39:13.671Z,87.00
2018-06-19T22:41:41.459Z,87.10
2018-06-19T22:44:09.176Z,87.00
2018-06-19T22:46:36.853Z,86.80
2018-06-19T22:49:04.588Z,86.80
2018-06-19T22:51:32.292Z,86.70
2018-06-19T22:54:00.084Z,86.70
2018-06-19T22:56:27.821Z,86.60
2018-06-19T22:58:55.589Z,86.40
2018-06-19T23:01:23.345Z,86.30
2018-06-19T23:03:51.153Z,86.20
2018-06-19T23:06:18.921Z,85.80
2018-06-19T23:08:46.676Z,85.50
2018-06-19T23:11:14.437Z,85.40
2018-06-19T23:13:42.166Z,85.90
2018-06-19T23:16:09.955Z,85.50
2018-06-19T23:18:37.729Z,85.70
2018-06-19T23:21:05.500Z,85.90
2018-06-19T23:23:33.233Z,85.90
2018-06-19T23:26:01.036Z,85.90
2018-06-19T23:28:28.778Z,86.10
2018-06-19T23:30:56.541Z,86.20
2018-06-19T23:33:24.296Z,86.20
2018-06-19T23:35:52.097Z,86.30
2018-06-19T23:38:20.675Z,86.20
2018-06-19T23:40:48.460Z,86.30
2018-06-19T23:43:16.212Z,86.40
2018-06-19T23:45:43.911Z,86.50
2018-06-19T23:48:11.649Z,86.50
2018-06-19T23:50:39.421Z,86.40
2018-06-19T23:53:07.276Z,86.50
2018-06-19T23:55:35.022Z,86.30
2018-06-19T23:58:02.844Z,86.50
